Terminal Aerodrome Forecast
Issued by NWS

Current Version | Previous Version | Text Only | Print | Product List | Glossary On
Versions: 1 2 3 4 5 6 7 8 9 10 11 12 13 14 15 16 17 18
147
FTUS41 KBTV 252320
TAFMPV
TAF
KMPV 252320Z 2600/2624 00000KT P6SM FEW050
      TEMPO 2603/2605 2SM BR BKN002
     FM260500 00000KT 1/4SM FG VV001
     FM261430 00000KT 3SM BR SCT001
     FM261500 VRB03KT P6SM FEW050 SCT250=

USA.gov is the U.S. government's official web portal to all federal, state and local government web resources and services.